Anacostia, District of Columbia
Current Conditions -  °F | °C
As of 11:52 AM on Sunday 23 Nov 2014 (Local Time) from KDCA Reporting Station
Broken Clouds Broken Clouds  
Wind Chill: 51°   Ceiling: 12000
Heat Index: 51°   Visibility: 10mi
Dew Point: 24°   Wind: 7mph
Humidity: 35%   Direction: 200°SSW
Pressure: 30.2"   Gusts: NA
Location:  38.8618°N, 77.0026°W
Report Text: KDCA 231652Z 20006KT 10SM BKN120 BKN250 11/M04 A3020 RMK AO2 SLP225 T01061044
Loading
Personal Weather Stations






























Interactive Weather Map New forecast layout! Learn more

10-Day Weather Forecast

Advertisements
Track Severe Weather on mobile